Time;durP1;ratioP1;P1;durP2;ratioP2;P2;SDS_P1;SDS_P2;PMS_P1;PMS_P2;Temp;Humidity;BMP_temperature;BMP_pressure;BME280_temperature;BME280_humidity;BME280_pressure;Samples;Min_cycle;Max_cycle;Signal;HPM_P1;HPM_P2
2022/10/02 00:09:56;;;;;;;2.00;0.70;;;;;;;;;;21077009;28;20254;-70
2022/10/02 00:19:58;;;;;;;1.97;0.50;;;;;;;;;;21078778;28;20585;-70
2022/10/02 00:30:01;;;;;;;1.33;0.53;;;13.20;99.90;;;;;;21077386;28;20551;-69
2022/10/02 00:40:03;;;;;;;0.80;0.50;;;;;;;;;;21076341;28;20299;-69
2022/10/02 00:50:19;;;;;;;1.20;0.50;;;13.10;99.90;;;;;;21074555;28;20216;-71
2022/10/02 01:00:22;;;;;;;1.70;0.60;;;;;;;;;;21074916;28;20584;-69
2022/10/02 01:10:26;;;;;;;0.67;0.50;;;13.10;99.90;;;;;;21056700;28;20212;-71
2022/10/02 01:20:31;;;;;;;0.90;0.60;;;;;;;;;;21072413;28;20228;-70
2022/10/02 01:30:35;;;;;;;0.90;0.53;;;13.20;99.90;;;;;;21072221;28;20615;-70
2022/10/02 01:40:38;;;;;;;1.17;0.53;;;;;;;;;;21071561;28;20717;-70
2022/10/02 01:51:06;;;;;;;0.87;0.53;;;13.20;99.90;;;;;;21070173;28;20459;-69
2022/10/02 02:01:07;;;;;;;1.53;0.50;;;;;;;;;;21051140;28;20265;-70
2022/10/02 02:11:13;;;;;;;3.87;0.77;;;13.30;99.90;;;;;;21067296;28;20586;-70
2022/10/02 02:21:22;;;;;;;0.80;0.50;;;;;;;;;;21068776;28;20205;-70
2022/10/02 02:31:29;;;;;;;0.90;0.50;;;13.20;99.90;;;;;;21067811;28;20216;-69
2022/10/02 02:41:39;;;;;;;1.80;0.70;;;13.30;99.90;;;;;;21067625;28;20254;-69
2022/10/02 02:51:42;;;;;;;1.43;0.50;;;;;;;;;;21048439;28;20230;-70
2022/10/02 03:01:44;;;;;;;2.33;0.80;;;;;;;;;;21065193;28;20324;-70
2022/10/02 03:11:46;;;;;;;3.57;1.00;;;;;;;;;;21065782;28;20748;-70
2022/10/02 03:22:09;;;;;;;1.20;0.77;;;;;;;;;;21062244;28;20228;-69
2022/10/02 03:32:14;;;;;;;2.07;0.63;;;13.30;99.90;;;;;;21081682;28;20277;-70
2022/10/02 03:42:20;;;;;;;1.90;0.60;;;13.40;99.90;;;;;;21064087;28;20204;-70
2022/10/02 03:52:22;;;;;;;4.83;0.90;;;13.40;99.90;;;;;;21078503;28;20250;-69
2022/10/02 04:02:24;;;;;;;2.80;0.60;;;;;;;;;;21079910;28;20584;-71
2022/10/02 04:12:33;;;;;;;0.90;0.70;;;13.40;99.90;;;;;;21060536;28;20220;-70
2022/10/02 04:22:35;;;;;;;3.03;0.67;;;;;;;;;;21078322;28;20208;-70
2022/10/02 04:32:37;;;;;;;1.63;0.60;;;13.30;99.90;;;;;;21077122;28;20213;-70
2022/10/02 04:43:26;;;;;;;2.03;0.90;;;13.30;99.90;;;;;;21076701;28;20204;-70
2022/10/02 04:53:56;;;;;;;0.87;0.60;;;13.20;99.90;;;;;;21056770;28;20212;-70
2022/10/02 05:03:57;;;;;;;2.03;0.50;;;;;;;;;;21075014;28;20212;-70
2022/10/02 05:13:59;;;;;;;3.50;0.80;;;;;;;;;;21056803;28;20224;-70
2022/10/02 05:24:01;;;;;;;1.30;0.80;;;;;;;;;;21072310;28;20265;-70
2022/10/02 05:34:19;;;;;;;1.80;0.73;;;;;;;;;;21071351;28;20695;-70
2022/10/02 05:44:43;;;;;;;2.13;0.77;;;13.40;99.90;;;;;;21053492;28;20205;-70
2022/10/02 05:55:07;;;;;;;1.80;0.50;;;;;;;;;;21065653;28;20687;-70
2022/10/02 06:05:18;;;;;;;1.50;0.50;;;;;;;;;;21059205;28;20246;-70
2022/10/02 06:15:22;;;;;;;2.03;0.97;;;;;;;;;;21070003;28;20208;-70
2022/10/02 06:25:29;;;;;;;3.90;0.90;;;13.30;99.90;;;;;;21068761;28;20257;-70
2022/10/02 06:35:44;;;;;;;1.17;0.70;;;;;;;;;;21068457;28;20212;-70
2022/10/02 06:46:01;;;;;;;2.77;1.20;;;13.20;99.90;;;;;;21066891;28;20228;-70
2022/10/02 06:56:32;;;;;;;1.80;0.70;;;13.50;99.90;;;;;;21068271;28;20211;-70
2022/10/02 07:06:45;;;;;;;1.67;1.07;;;;;;;;;;21048871;28;20232;-70
2022/10/02 07:16:57;;;;;;;2.10;0.87;;;13.30;99.90;;;;;;21048255;28;20571;-70
2022/10/02 07:27:06;;;;;;;3.57;1.37;;;;;;;;;;21045179;28;20269;-70
2022/10/02 07:37:07;;;;;;;1.40;0.70;;;;;;;;;;21059390;28;20221;-69
2022/10/02 07:47:12;;;;;;;1.00;0.70;;;;;;;;;;21064584;28;20216;-69
2022/10/02 07:57:25;;;;;;;0.90;0.70;;;13.20;99.90;;;;;;21061323;28;20216;-70
2022/10/02 08:07:28;;;;;;;0.77;0.40;;;14.00;99.90;;;;;;21058700;28;20249;-70
2022/10/02 08:17:33;;;;;;;0.60;0.40;;;;;;;;;;21060196;28;20691;-70
2022/10/02 08:27:49;;;;;;;2.23;1.47;;;13.30;99.90;;;;;;21076021;28;20719;-70
2022/10/02 08:38:09;;;;;;;1.20;1.00;;;;;;;;;;21054675;28;20220;-69
2022/10/02 08:48:29;;;;;;;1.07;0.70;;;13.40;99.90;;;;;;21068016;28;20249;-69
2022/10/02 08:58:39;;;;;;;1.20;0.70;;;13.40;99.90;;;;;;21073079;28;20294;-69
2022/10/02 09:09:00;;;;;;;2.03;0.97;;;;;;;;;;21074289;28;20215;-69
2022/10/02 09:19:04;;;;;;;0.50;0.33;;;;;;;;;;21072597;28;20258;-69
2022/10/02 09:29:14;;;;;;;0.60;0.40;;;;;;;;;;21072233;28;20200;-69
2022/10/02 09:39:28;;;;;;;0.40;0.40;;;;;;;;;;21046038;28;20216;-69
2022/10/02 09:49:59;;;;;;;1.30;0.80;;;;;;;;;;21077852;28;20200;-68
2022/10/02 10:00:15;;;;;;;0.93;0.43;;;;;;;;;;21047978;28;20779;-68
2022/10/02 10:10:26;;;;;;;0.87;0.30;;;;;;;;;;21040034;22;20289;-66
2022/10/02 10:20:49;;;;;;;0.23;0.20;;;;;;;;;;21033986;28;20216;-66
2022/10/02 10:30:51;;;;;;;0.80;0.40;;;;;;;;;;21006848;28;20839;-66
2022/10/02 10:40:56;;;;;;;0.60;0.50;;;;;;;;;;21024628;28;20687;-66
2022/10/02 10:51:16;;;;;;;0.50;0.23;;;13.70;99.90;;;;;;20996792;28;20220;-66
2022/10/02 11:01:42;;;;;;;0.23;0.20;;;;;;;;;;21028950;28;20699;-66
2022/10/02 11:11:57;;;;;;;0.20;0.20;;;;;;;;;;21017571;28;20759;-66
2022/10/02 11:22:16;;;;;;;0.57;0.40;;;13.90;99.90;;;;;;21017275;28;20261;-66
2022/10/02 11:32:27;;;;;;;0.20;0.20;;;;;;;;;;21017226;28;20592;-67
2022/10/02 11:42:44;;;;;;;0.30;0.30;;;;;;;;;;21030649;28;20281;-66
2022/10/02 11:53:06;;;;;;;0.60;0.50;;;;;;;;;;21065140;28;20250;-67
2022/10/02 12:03:15;;;;;;;0.30;0.30;;;;;;;;;;21047974;28;20221;-66
2022/10/02 12:13:20;;;;;;;0.20;0.10;;;;;;;;;;21020818;28;20300;-66
2022/10/02 12:33:54;;;;;;;0.40;0.40;;;14.20;99.90;;;;;;21053434;28;20754;-66
2022/10/02 12:44:32;;;;;;;0.40;0.40;;;14.10;99.90;;;;;;21061554;28;20208;-67
2022/10/02 12:54:34;;;;;;;0.90;0.60;;;;;;;;;;21012041;28;20220;-67
2022/10/02 13:05:11;;;;;;;0.90;0.70;;;14.20;99.90;;;;;;21060347;28;20228;-67
2022/10/02 13:15:17;;;;;;;0.47;0.40;;;;;;;;;;21042417;28;20216;-67
2022/10/02 13:25:19;;;;;;;0.73;0.40;;;;;;;;;;21058449;28;20238;-66
2022/10/02 13:35:21;;;;;;;0.60;0.50;;;;;;;;;;21024920;28;20714;-68
2022/10/02 13:45:28;;;;;;;0.33;0.30;;;14.20;99.90;;;;;;21057247;28;20212;-67
2022/10/02 13:55:33;;;;;;;0.77;0.40;;;;;;;;;;21039676;28;20228;-67
2022/10/02 14:05:50;;;;;;;0.37;0.30;;;;;;;;;;21030083;28;20220;-66
2022/10/02 14:16:29;;;;;;;0.47;0.40;;;14.20;99.90;;;;;;21006714;28;20266;-67
2022/10/02 14:26:31;;;;;;;0.30;0.30;;;;;;;;;;20998593;28;20220;-67
2022/10/02 14:36:57;;;;;;;0.30;0.30;;;14.20;99.90;;;;;;21004872;28;20228;-68
2022/10/02 14:47:09;;;;;;;0.77;0.63;;;;;;;;;;20986316;28;20593;-69
2022/10/02 14:57:10;;;;;;;0.40;0.30;;;;;;;;;;20999530;28;20219;-68
2022/10/02 15:07:20;;;;;;;0.30;0.20;;;;;;;;;;20998303;28;20246;-68
2022/10/02 15:27:59;;;;;;;0.40;0.30;;;;;;;;;;21049037;28;20247;-67
2022/10/02 15:38:07;;;;;;;0.40;0.40;;;14.10;99.90;;;;;;21025729;28;20325;-67
2022/10/02 15:48:18;;;;;;;0.93;0.60;;;;;;;;;;20986270;28;20217;-67
2022/10/02 15:58:53;;;;;;;1.37;0.40;;;14.10;99.90;;;;;;20977027;28;20253;-67
2022/10/02 16:09:10;;;;;;;1.67;0.50;;;14.00;99.90;;;;;;21006991;28;20890;-67
2022/10/02 16:19:12;;;;;;;0.70;0.50;;;;;;;;;;21024674;28;20228;-67
2022/10/02 16:29:17;;;;;;;0.73;0.47;;;14.10;99.90;;;;;;20982947;28;20246;-69
2022/10/02 16:39:54;;;;;;;0.53;0.50;;;14.10;99.90;;;;;;20993116;28;20274;-69
2022/10/02 16:50:15;;;;;;;1.00;0.60;;;;;;;;;;20941005;28;20205;-69
2022/10/02 17:00:44;;;;;;;0.67;0.60;;;14.10;99.90;;;;;;20976469;28;20217;-69
2022/10/02 17:10:52;;;;;;;1.13;0.80;;;;;;;;;;20962642;28;20316;-68
2022/10/02 17:20:56;;;;;;;1.23;0.80;;;;;;;;;;21020372;28;20751;-69
2022/10/02 17:31:17;;;;;;;1.93;1.10;;;;;;;;;;20995128;28;20263;-69
2022/10/02 17:41:39;;;;;;;1.53;1.00;;;;;;;;;;20997601;28;20615;-69
2022/10/02 17:51:56;;;;;;;1.13;0.77;;;;;;;;;;20989912;28;20607;-68
2022/10/02 18:02:17;;;;;;;0.40;0.40;;;;;;;;;;21027195;28;20257;-69
2022/10/02 18:13:01;;;;;;;0.40;0.40;;;13.70;99.90;;;;;;21030511;28;20274;-69
2022/10/02 18:23:15;;;;;;;1.90;0.63;;;;;;;;;;21004177;28;20211;-69
2022/10/02 18:33:24;;;;;;;6.90;3.70;;;;;;;;;;21031191;28;20300;-68
2022/10/02 18:43:25;;;;;;;4.30;2.50;;;;;;;;;;21013162;28;20742;-68
2022/10/02 18:53:43;;;;;;;2.67;1.60;;;;;;;;;;21026400;28;20641;-68
2022/10/02 19:03:48;;;;;;;2.17;1.00;;;;;;;;;;21073446;22;20603;-70
2022/10/02 19:13:50;;;;;;;0.73;0.70;;;;;;;;;;21121174;28;20215;-71
2022/10/02 19:24:02;;;;;;;0.83;0.60;;;13.40;99.90;;;;;;21105477;28;20747;-72
2022/10/02 19:34:12;;;;;;;1.67;0.97;;;;;;;;;;21067522;28;20251;-69
2022/10/02 19:44:20;;;;;;;1.77;1.13;;;13.20;99.90;;;;;;21132433;28;20229;-70
2022/10/02 19:54:25;;;;;;;2.20;1.40;;;;;;;;;;21130736;28;20565;-70
2022/10/02 20:04:29;;;;;;;1.80;0.90;;;;;;;;;;21155505;28;20277;-70
2022/10/02 20:14:40;;;;;;;3.77;1.13;;;;;;;;;;21154336;28;20207;-70
2022/10/02 20:24:54;;;;;;;1.00;0.87;;;13.00;99.90;;;;;;21155879;28;20203;-72
2022/10/02 20:35:01;;;;;;;1.87;1.27;;;;;;;;;;21151891;28;20351;-72
2022/10/02 20:45:03;;;;;;;1.53;1.10;;;;;;;;;;21153965;28;20216;-72
2022/10/02 20:55:29;;;;;;;3.37;1.00;;;;;;;;;;21154111;28;20833;-71
2022/10/02 21:05:49;;;;;;;1.80;0.90;;;12.60;99.90;;;;;;21140744;28;20256;-71
2022/10/02 21:16:19;;;;;;;1.70;1.30;;;12.70;99.90;;;;;;21146696;28;20215;-72
2022/10/02 21:26:26;;;;;;;1.17;1.07;;;;;;;;;;21133912;28;20257;-71
2022/10/02 21:36:34;;;;;;;1.50;0.90;;;12.50;99.90;;;;;;21117005;28;20231;-72
2022/10/02 21:47:02;;;;;;;1.63;1.30;;;;;;;;;;21139318;28;20237;-71
2022/10/02 21:57:23;;;;;;;1.47;1.13;;;;;;;;;;21132520;28;20227;-71
2022/10/02 22:07:56;;;;;;;2.07;1.23;;;12.40;99.90;;;;;;21154917;28;20215;-71
2022/10/02 22:17:58;;;;;;;1.90;1.20;;;;;;;;;;21153702;28;20284;-71
2022/10/02 22:28:09;;;;;;;1.97;1.20;;;;;;;;;;21151161;28;20296;-72
2022/10/02 22:38:14;;;;;;;2.20;1.63;;;;;;;;;;21150601;28;20276;-71
2022/10/02 22:48:45;;;;;;;2.23;1.30;;;12.10;99.90;;;;;;21151683;28;20739;-71
2022/10/02 22:58:56;;;;;;;2.90;1.77;;;12.20;99.90;;;;;;21142559;28;20636;-71
2022/10/02 23:09:17;;;;;;;2.07;1.20;;;;;;;;;;21149733;28;20640;-71
2022/10/02 23:19:27;;;;;;;4.07;1.63;;;11.90;99.90;;;;;;21149602;28;20223;-71
2022/10/02 23:30:04;;;;;;;2.33;1.40;;;12.10;99.90;;;;;;21132567;28;20624;-71
2022/10/02 23:41:35;;;;;;;2.73;1.63;;;;;;;;;;21144813;28;20700;-72
2022/10/02 23:50:57;;;;;;;3.23;2.00;;;;;;;;;;21156583;28;20207;-71
